Accueil
METAR-TAF:

METAR-TAF

Aéroports :

Aéroport de Saint-Louis

Saint-Louis, Sénégal

latitude: 16-03N, longitude: 016-27W, altitude: 4 m

Observation

Le bulletin a été fait il y a 1 heure et 7 minutes, à 11:00 UTC
Vent 6 kt de ouest/sud-ouest, variant entre sud et ouest/nord-ouest
Température 30°C
Humidité 66%
Pression 1015 hPa
Visibilité 10 km ou plus
pas de nuages en-dessous de 1500 mètres et pas de cumulonimbus.

METAR: GOSS 151100Z 24006KT 190V290 CAVOK 30/23 Q1015

Heure: 12:07 (12:07 UTC)

Prévision

Le bulletin a été fait il y a 7 heures et 7 minutes, à 05:00 UTC
Prévision valable du 15 à 06 UTC au 16 à 06 UTC
Vent 8 kt de nord-ouest
Visibilité 10 km ou plus
Nuages épars à une hauteur de 1300 ft

TAF: GOSS 150500Z 1506/1606 32008KT 9999 SCT013

Observations et prévisions météorologiques de plus de 4000 aéroports (messages METAR et TAF).

Les stations disponibles sont représentées par des disques jaunes et rouges sur la carte.

Passer la souris dessus pour voir le nom de la station.

Cliquer dessus pour voir les observations et prévisions météorologiques.

Pour changer de carte: cliquez sur les boutons verts avec une croix noire pour zoomer, sur le bouton vert avec un tiret pour effectuer un zoom arrière, ou sur les flèches vertes pour les cartes adjacentes.


METAR-TAF: